createdAt,value
2023-05-18T00:00:19.425Z,2.88
2023-05-18T00:01:22.129Z,2.90
2023-05-18T00:02:23.955Z,2.72
2023-05-18T00:03:28.352Z,3.13
2023-05-18T00:04:31.235Z,2.55
2023-05-18T00:05:34.249Z,1.98
2023-05-18T00:06:36.381Z,2.95
2023-05-18T00:07:41.117Z,2.78
2023-05-18T00:08:42.668Z,2.88
2023-05-18T00:09:45.225Z,2.45
2023-05-18T00:10:46.739Z,2.50
2023-05-18T00:11:49.202Z,2.58
2023-05-18T00:12:50.890Z,2.20
2023-05-18T00:13:53.346Z,2.13
2023-05-18T00:14:55.011Z,2.28
2023-05-18T00:15:57.699Z,2.33
2023-05-18T00:17:01.787Z,2.83
2023-05-18T00:18:04.503Z,2.38
2023-05-18T00:19:06.201Z,2.42
2023-05-18T00:20:09.553Z,2.25
2023-05-18T00:21:11.713Z,2.67
2023-05-18T00:22:18.764Z,3.08
2023-05-18T00:23:23.467Z,2.50
2023-05-18T00:24:25.997Z,2.45
2023-05-18T00:25:27.644Z,2.10
2023-05-18T00:26:30.185Z,2.30
2023-05-18T00:27:32.688Z,2.50
2023-05-18T00:28:35.161Z,2.55
2023-05-18T00:29:36.750Z,2.60
2023-05-18T00:30:39.427Z,2.50
2023-05-18T00:31:42.298Z,2.28
2023-05-18T00:32:45.550Z,2.45
2023-05-18T00:33:47.106Z,2.45
2023-05-18T00:34:49.569Z,2.42
2023-05-18T00:35:51.334Z,2.70
2023-05-18T00:36:53.837Z,2.67
2023-05-18T00:37:55.339Z,2.28
2023-05-18T00:38:59.440Z,2.42
2023-05-18T00:40:01.034Z,2.50
2023-05-18T00:41:03.715Z,2.40
2023-05-18T00:42:05.803Z,2.55
2023-05-18T00:43:08.352Z,2.35
2023-05-18T00:44:10.175Z,2.38
2023-05-18T00:45:12.715Z,2.30
2023-05-18T00:46:14.430Z,2.13
2023-05-18T00:47:18.458Z,1.95
2023-05-18T00:48:22.862Z,2.25
2023-05-18T00:49:25.639Z,2.63
2023-05-18T00:50:27.485Z,2.67
2023-05-18T00:51:30.785Z,2.38
2023-05-18T00:52:32.965Z,1.90
2023-05-18T00:53:36.219Z,2.35
2023-05-18T00:54:39.167Z,2.42
2023-05-18T00:55:41.813Z,2.25
2023-05-18T00:56:46.163Z,2.35
2023-05-18T00:57:48.756Z,2.42
2023-05-18T00:58:52.895Z,2.30
2023-05-18T00:59:56.365Z,1.65
2023-05-18T01:00:58.114Z,2.30
2023-05-18T01:02:01.644Z,2.30
2023-05-18T01:03:04.045Z,2.20
2023-05-18T01:04:06.590Z,2.35
2023-05-18T01:05:09.096Z,2.72
2023-05-18T01:06:12.881Z,2.75
2023-05-18T01:07:16.532Z,2.40
2023-05-18T01:08:19.678Z,2.40
2023-05-18T01:09:21.288Z,2.60
2023-05-18T01:10:25.126Z,2.55
2023-05-18T01:11:35.245Z,2.40
2023-05-18T01:12:44.463Z,2.33
2023-05-18T01:14:02.270Z,2.53
2023-05-18T01:15:09.660Z,2.22
2023-05-18T01:16:17.009Z,2.70
2023-05-18T01:17:27.942Z,2.60
2023-05-18T01:18:39.048Z,2.00
2023-05-18T01:20:09.927Z,2.40
2023-05-18T01:21:20.393Z,2.63
2023-05-18T01:22:33.586Z,2.38
2023-05-18T01:24:10.931Z,2.80
2023-05-18T01:25:21.589Z,2.85
2023-05-18T01:26:29.822Z,1.67
2023-05-18T01:27:37.480Z,2.60
2023-05-18T01:28:40.013Z,2.65
2023-05-18T01:29:42.751Z,2.33
2023-05-18T01:30:45.997Z,2.30
2023-05-18T01:31:47.585Z,2.30
2023-05-18T01:32:50.199Z,2.63
2023-05-18T01:33:51.769Z,2.50
2023-05-18T01:34:54.253Z,2.85
2023-05-18T01:35:55.880Z,2.33
2023-05-18T01:36:58.329Z,2.65
2023-05-18T01:37:59.894Z,2.17
2023-05-18T01:39:03.036Z,2.20
2023-05-18T01:40:06.935Z,2.42
2023-05-18T01:41:15.857Z,2.13
2023-05-18T01:42:25.472Z,2.50
2023-05-18T01:43:32.822Z,2.70
2023-05-18T01:44:39.760Z,2.47
2023-05-18T01:45:47.125Z,2.15
2023-05-18T01:46:57.245Z,1.90
2023-05-18T01:48:01.901Z,2.63
2023-05-18T01:49:22.120Z,2.70
2023-05-18T01:50:31.531Z,2.35
2023-05-18T01:51:42.121Z,2.55
2023-05-18T01:52:48.508Z,2.05
2023-05-18T01:53:58.011Z,2.40
2023-05-18T01:55:03.373Z,2.70
2023-05-18T01:56:09.134Z,2.55
2023-05-18T01:57:11.377Z,2.63
2023-05-18T01:58:16.471Z,2.53
2023-05-18T01:59:18.179Z,2.53
2023-05-18T02:00:21.606Z,2.92
2023-05-18T02:01:24.018Z,2.13
2023-05-18T02:02:26.901Z,2.80
2023-05-18T02:03:28.642Z,2.38
2023-05-18T02:04:31.796Z,2.58
2023-05-18T02:05:33.368Z,2.70
2023-05-18T02:06:36.812Z,2.97
2023-05-18T02:07:38.492Z,2.40
2023-05-18T02:08:41.255Z,2.78
2023-05-18T02:09:44.222Z,3.22
2023-05-18T02:10:46.708Z,2.72
2023-05-18T02:11:48.324Z,2.38
2023-05-18T02:12:52.853Z,2.65
2023-05-18T02:13:55.814Z,2.13
2023-05-18T02:14:58.479Z,2.75
2023-05-18T02:16:00.119Z,2.40
2023-05-18T02:17:02.824Z,2.60
2023-05-18T02:18:04.538Z,2.33
2023-05-18T02:19:07.390Z,2.33
2023-05-18T02:20:10.140Z,2.35
2023-05-18T02:21:13.752Z,3.00
2023-05-18T02:22:15.259Z,2.10
2023-05-18T02:23:17.743Z,2.63
2023-05-18T02:24:19.288Z,2.85
2023-05-18T02:25:21.894Z,2.85
2023-05-18T02:26:23.390Z,2.53
2023-05-18T02:27:25.883Z,2.85
2023-05-18T02:28:27.682Z,3.13
2023-05-18T02:29:31.434Z,3.33
2023-05-18T02:30:34.425Z,2.33
2023-05-18T02:31:36.962Z,3.10
2023-05-18T02:32:38.809Z,2.90
2023-05-18T02:33:41.624Z,2.40
2023-05-18T02:34:43.371Z,2.42
2023-05-18T02:35:46.517Z,2.88
2023-05-18T02:36:48.803Z,3.03
2023-05-18T02:37:51.331Z,2.53
2023-05-18T02:38:52.890Z,2.70
2023-05-18T02:39:55.702Z,2.80
2023-05-18T02:40:57.237Z,2.35
2023-05-18T02:41:59.661Z,2.65
2023-05-18T02:43:01.324Z,2.65
2023-05-18T02:44:03.872Z,2.50
2023-05-18T02:45:08.079Z,2.78
2023-05-18T02:46:10.575Z,2.50
2023-05-18T02:47:12.097Z,2.60
2023-05-18T02:48:14.580Z,2.80
2023-05-18T02:49:16.249Z,3.50
2023-05-18T02:50:18.775Z,2.80
2023-05-18T02:51:21.612Z,2.35
2023-05-18T02:52:24.189Z,2.67
2023-05-18T02:53:26.447Z,2.33
2023-05-18T02:54:29.042Z,2.72
2023-05-18T02:55:30.844Z,2.20
2023-05-18T02:56:33.779Z,2.20
2023-05-18T02:57:35.335Z,2.38
2023-05-18T02:58:37.805Z,3.17
2023-05-18T02:59:39.601Z,2.65
2023-05-18T03:00:43.618Z,2.75
2023-05-18T03:01:45.213Z,2.70
2023-05-18T03:02:48.663Z,2.53
2023-05-18T03:03:51.374Z,3.03
2023-05-18T03:04:57.250Z,2.67
2023-05-18T03:06:00.465Z,2.70
2023-05-18T03:07:03.593Z,2.63
2023-05-18T03:08:05.258Z,2.83
2023-05-18T03:09:07.707Z,2.58
2023-05-18T03:10:09.721Z,2.85
2023-05-18T03:11:12.238Z,2.90
2023-05-18T03:12:13.796Z,3.03
2023-05-18T03:13:16.325Z,2.80
2023-05-18T03:14:17.809Z,3.25
2023-05-18T03:15:20.769Z,3.05
2023-05-18T03:16:28.633Z,2.65
2023-05-18T03:17:31.338Z,2.78
2023-05-18T03:18:32.856Z,3.47
2023-05-18T03:19:36.027Z,3.20
2023-05-18T03:20:38.082Z,3.20
2023-05-18T03:21:41.347Z,3.00
2023-05-18T03:22:42.883Z,2.83
2023-05-18T03:23:45.391Z,2.55
2023-05-18T03:24:46.994Z,2.65
2023-05-18T03:25:53.622Z,2.38
2023-05-18T03:26:55.250Z,2.85
2023-05-18T03:27:58.230Z,2.42
2023-05-18T03:29:01.109Z,3.40
2023-05-18T03:30:04.162Z,2.97
2023-05-18T03:31:06.040Z,2.75
2023-05-18T03:32:12.710Z,3.08
2023-05-18T03:33:14.482Z,3.20
2023-05-18T03:34:17.065Z,2.92
2023-05-18T03:35:18.590Z,2.70
2023-05-18T03:36:22.406Z,2.60
2023-05-18T03:37:23.947Z,3.58
2023-05-18T03:38:26.538Z,3.40
2023-05-18T03:39:28.067Z,2.53
2023-05-18T03:40:30.787Z,2.78
2023-05-18T03:41:32.369Z,2.88
2023-05-18T03:42:34.891Z,3.13
2023-05-18T03:43:36.392Z,2.65
2023-05-18T03:44:39.063Z,2.83
2023-05-18T03:45:40.858Z,2.92
2023-05-18T03:46:43.361Z,3.92
2023-05-18T03:47:46.326Z,2.88
2023-05-18T03:48:48.810Z,2.67
2023-05-18T03:49:50.588Z,2.72
2023-05-18T03:50:53.088Z,2.50
2023-05-18T03:51:54.614Z,3.10
2023-05-18T03:52:57.330Z,3.00
2023-05-18T03:53:59.050Z,3.05
2023-05-18T03:55:02.904Z,2.92
2023-05-18T03:56:04.904Z,3.03
2023-05-18T03:57:07.646Z,2.80
2023-05-18T03:58:09.389Z,3.33
2023-05-18T03:59:12.028Z,2.60
2023-05-18T04:00:15.779Z,2.80
2023-05-18T04:01:19.208Z,2.95
2023-05-18T04:02:21.174Z,2.95
2023-05-18T04:03:27.321Z,2.90
2023-05-18T04:04:29.042Z,3.45
2023-05-18T04:05:31.753Z,2.90
2023-05-18T04:06:35.388Z,3.40
2023-05-18T04:07:44.055Z,2.97
2023-05-18T04:08:47.045Z,3.13
2023-05-18T04:09:48.977Z,2.88
2023-05-18T04:10:51.677Z,3.25
2023-05-18T04:11:53.218Z,2.88
2023-05-18T04:12:55.803Z,3.50
2023-05-18T04:13:57.957Z,3.15
2023-05-18T04:15:00.847Z,2.90
2023-05-18T04:16:04.284Z,3.25
2023-05-18T04:17:07.014Z,3.38
2023-05-18T04:18:08.638Z,3.33
2023-05-18T04:19:13.575Z,3.30
2023-05-18T04:20:15.435Z,2.92
2023-05-18T04:21:19.391Z,3.03
2023-05-18T04:22:22.047Z,3.50
2023-05-18T04:23:24.535Z,3.85
2023-05-18T04:24:26.925Z,3.33
2023-05-18T04:25:29.701Z,3.30
2023-05-18T04:26:31.666Z,2.83
2023-05-18T04:27:34.331Z,3.35
2023-05-18T04:28:40.448Z,3.05
2023-05-18T04:29:47.064Z,3.60
2023-05-18T04:30:48.603Z,3.17
2023-05-18T04:31:51.110Z,3.25
2023-05-18T04:32:54.587Z,2.90
2023-05-18T04:33:58.916Z,3.30
2023-05-18T04:35:02.292Z,2.67
2023-05-18T04:36:05.555Z,2.53
2023-05-18T04:37:07.729Z,3.15
2023-05-18T04:38:10.736Z,3.40
2023-05-18T04:39:12.480Z,2.83
2023-05-18T04:40:16.920Z,3.00
2023-05-18T04:41:20.477Z,3.03
2023-05-18T04:42:23.033Z,2.47
2023-05-18T04:43:24.514Z,3.00
2023-05-18T04:44:27.649Z,2.78
2023-05-18T04:45:30.173Z,2.78
2023-05-18T04:46:34.522Z,2.80
2023-05-18T04:47:36.134Z,2.88
2023-05-18T04:48:38.636Z,2.20
2023-05-18T04:49:40.203Z,2.40
2023-05-18T04:50:45.498Z,2.25
2023-05-18T04:51:47.040Z,2.50
2023-05-18T04:52:51.823Z,2.88
2023-05-18T04:53:53.395Z,1.98
2023-05-18T04:54:55.876Z,2.50
2023-05-18T04:55:57.490Z,2.10
2023-05-18T04:57:02.153Z,2.25
2023-05-18T04:58:04.844Z,2.25
2023-05-18T04:59:07.344Z,2.53
2023-05-18T05:00:10.039Z,2.30
2023-05-18T05:01:12.930Z,2.45
2023-05-18T05:02:14.684Z,2.42
2023-05-18T05:03:17.365Z,2.40
2023-05-18T05:04:19.520Z,2.15
2023-05-18T05:05:22.365Z,2.05
2023-05-18T05:06:25.560Z,2.17
2023-05-18T05:07:28.028Z,2.25
2023-05-18T05:08:29.541Z,2.15
2023-05-18T05:09:32.072Z,2.40
2023-05-18T05:10:33.661Z,2.17
2023-05-18T05:11:36.192Z,2.30
2023-05-18T05:12:38.529Z,2.30
2023-05-18T05:13:41.062Z,2.15
2023-05-18T05:14:42.566Z,2.22
2023-05-18T05:15:45.063Z,1.95
2023-05-18T05:16:46.602Z,1.92
2023-05-18T05:17:49.591Z,2.45
2023-05-18T05:18:51.245Z,2.05
2023-05-18T05:19:53.780Z,2.17
2023-05-18T05:20:55.447Z,2.85
2023-05-18T05:21:59.245Z,2.65
2023-05-18T05:23:00.801Z,2.15
2023-05-18T05:24:05.053Z,2.30
2023-05-18T05:25:07.191Z,2.38
2023-05-18T05:26:09.703Z,2.45
2023-05-18T05:27:11.388Z,2.13
2023-05-18T05:28:13.879Z,2.13
2023-05-18T05:29:15.592Z,2.28
2023-05-18T05:30:18.078Z,2.10
2023-05-18T05:31:19.655Z,2.20
2023-05-18T05:32:22.197Z,2.25
2023-05-18T05:33:23.714Z,2.13
2023-05-18T05:34:26.303Z,2.00
2023-05-18T05:35:27.865Z,1.92
2023-05-18T05:36:31.773Z,2.05
2023-05-18T05:37:34.971Z,2.17
2023-05-18T05:38:37.435Z,2.28
2023-05-18T05:39:39.014Z,2.10
2023-05-18T05:40:41.447Z,2.20
2023-05-18T05:41:42.984Z,2.60
2023-05-18T05:42:45.694Z,2.25
2023-05-18T05:43:47.207Z,2.38
2023-05-18T05:44:49.630Z,2.00
2023-05-18T05:45:51.108Z,2.15
2023-05-18T05:46:53.638Z,2.72
2023-05-18T05:47:55.224Z,1.88
2023-05-18T05:48:57.680Z,2.08
2023-05-18T05:50:00.186Z,2.88
2023-05-18T05:51:01.751Z,1.63
2023-05-18T05:52:04.430Z,2.08
2023-05-18T05:53:07.485Z,2.00
2023-05-18T05:54:10.837Z,2.03
2023-05-18T05:55:12.470Z,2.05
2023-05-18T05:56:14.937Z,2.33
2023-05-18T05:57:16.544Z,2.30
2023-05-18T05:58:19.080Z,2.08
2023-05-18T05:59:22.339Z,2.47
2023-05-18T06:00:25.304Z,2.35
2023-05-18T06:01:27.491Z,2.55
2023-05-18T06:02:30.098Z,2.45
2023-05-18T06:03:34.344Z,2.10
2023-05-18T06:04:38.374Z,2.80
2023-05-18T06:05:41.062Z,2.20
2023-05-18T06:06:43.824Z,2.92
2023-05-18T06:07:46.257Z,2.13
2023-05-18T06:08:49.127Z,2.53
2023-05-18T06:09:51.639Z,2.00
2023-05-18T06:10:53.649Z,2.10
2023-05-18T06:11:56.281Z,2.20
2023-05-18T06:12:57.820Z,2.05
2023-05-18T06:14:00.422Z,1.75
2023-05-18T06:15:02.569Z,2.33
2023-05-18T06:16:05.226Z,2.20
2023-05-18T06:17:06.812Z,2.38
2023-05-18T06:18:10.856Z,2.55
2023-05-18T06:19:13.732Z,2.05
2023-05-18T06:20:16.414Z,2.50
2023-05-18T06:21:18.069Z,2.25
2023-05-18T06:22:20.626Z,1.95
2023-05-18T06:23:23.512Z,2.08
2023-05-18T06:24:27.381Z,2.42
2023-05-18T06:25:29.145Z,2.45
2023-05-18T06:26:31.860Z,2.22
2023-05-18T06:27:33.356Z,2.45
2023-05-18T06:28:35.802Z,2.55
2023-05-18T06:29:37.425Z,2.30
2023-05-18T06:30:39.908Z,2.20
2023-05-18T06:31:41.533Z,2.20
2023-05-18T06:32:44.155Z,2.55
2023-05-18T06:33:45.831Z,2.42
2023-05-18T06:34:50.588Z,2.53
2023-05-18T06:35:52.165Z,2.40
2023-05-18T06:36:54.651Z,2.75
2023-05-18T06:37:56.159Z,3.03
2023-05-18T06:38:58.932Z,2.67
2023-05-18T06:40:01.814Z,2.33
2023-05-18T06:41:04.424Z,2.40
2023-05-18T06:42:06.573Z,2.20
2023-05-18T06:43:09.192Z,2.45
2023-05-18T06:44:10.722Z,2.28
2023-05-18T06:45:13.571Z,2.20
2023-05-18T06:46:22.684Z,2.72
2023-05-18T06:47:24.304Z,2.20
2023-05-18T06:48:29.166Z,2.38
2023-05-18T06:49:30.748Z,2.40
2023-05-18T06:50:33.254Z,1.95
2023-05-18T06:51:35.068Z,2.25
2023-05-18T06:52:37.591Z,2.05
2023-05-18T06:53:39.112Z,2.20
2023-05-18T06:54:41.601Z,2.20
2023-05-18T06:55:44.431Z,2.88
2023-05-18T06:56:47.356Z,2.30
2023-05-18T06:57:48.892Z,2.60
2023-05-18T06:58:51.336Z,2.30
2023-05-18T06:59:53.849Z,2.20
2023-05-18T07:00:56.438Z,2.00
2023-05-18T07:01:58.146Z,1.85
2023-05-18T07:03:01.678Z,2.22
2023-05-18T07:04:04.561Z,2.78
2023-05-18T07:05:09.097Z,1.88
2023-05-18T07:06:11.627Z,2.38
2023-05-18T07:07:13.193Z,2.42
2023-05-18T07:08:15.755Z,2.13
2023-05-18T07:09:17.338Z,2.03
2023-05-18T07:10:19.807Z,2.08
2023-05-18T07:11:22.914Z,2.15
2023-05-18T07:12:26.082Z,2.00
2023-05-18T07:13:27.589Z,2.42
2023-05-18T07:14:30.103Z,2.05
2023-05-18T07:15:31.788Z,2.42
2023-05-18T07:16:35.524Z,2.38
2023-05-18T07:17:37.820Z,2.53
2023-05-18T07:18:42.096Z,2.42
2023-05-18T07:19:43.701Z,2.33
2023-05-18T07:20:46.197Z,2.03
2023-05-18T07:21:47.840Z,1.73
2023-05-18T07:22:50.971Z,2.42
2023-05-18T07:23:53.499Z,2.10
2023-05-18T07:24:56.408Z,2.20
2023-05-18T07:25:57.914Z,2.53
2023-05-18T07:27:01.780Z,2.05
2023-05-18T07:28:03.326Z,2.03
2023-05-18T07:29:05.799Z,2.45
2023-05-18T07:30:08.838Z,2.03
2023-05-18T07:31:11.596Z,2.25
2023-05-18T07:32:14.116Z,2.00
2023-05-18T07:33:16.573Z,2.13
2023-05-18T07:34:18.221Z,2.33
2023-05-18T07:35:21.996Z,2.25
2023-05-18T07:36:24.119Z,1.90
2023-05-18T07:37:26.653Z,2.20
2023-05-18T07:38:28.210Z,2.10
2023-05-18T07:39:30.647Z,2.03
2023-05-18T07:40:32.178Z,1.60
2023-05-18T07:41:34.719Z,1.90
2023-05-18T07:42:38.545Z,2.00
2023-05-18T07:43:41.032Z,2.38
2023-05-18T07:44:43.544Z,1.80
2023-05-18T07:45:45.073Z,2.00
2023-05-18T07:46:48.191Z,2.40
2023-05-18T07:47:49.975Z,2.10
2023-05-18T07:48:52.628Z,2.22
2023-05-18T07:49:54.169Z,2.38
2023-05-18T07:50:56.898Z,2.10
2023-05-18T07:51:59.370Z,2.05
2023-05-18T07:53:01.870Z,2.38
2023-05-18T07:54:03.591Z,1.88
2023-05-18T07:55:07.253Z,2.30
2023-05-18T07:56:09.183Z,2.90
2023-05-18T07:57:11.675Z,2.20
2023-05-18T07:58:14.744Z,2.08
2023-05-18T07:59:17.231Z,2.03
2023-05-18T08:00:20.451Z,2.47
2023-05-18T08:01:27.252Z,1.63
2023-05-18T08:02:31.317Z,1.83
2023-05-18T08:03:35.518Z,2.08
2023-05-18T08:04:37.068Z,1.80
2023-05-18T08:05:39.767Z,2.30
2023-05-18T08:06:41.302Z,2.08
2023-05-18T08:07:43.785Z,2.28
2023-05-18T08:08:45.406Z,1.95
2023-05-18T08:09:47.974Z,1.90
2023-05-18T08:10:51.005Z,1.98
2023-05-18T08:11:53.587Z,1.67
2023-05-18T08:12:55.286Z,1.85
2023-05-18T08:13:59.051Z,1.88
2023-05-18T08:15:00.592Z,2.13
2023-05-18T08:16:11.870Z,2.00
2023-05-18T08:17:14.928Z,1.70
2023-05-18T08:18:16.576Z,1.50
2023-05-18T08:19:19.317Z,2.53
2023-05-18T08:20:20.943Z,2.47
2023-05-18T08:21:23.618Z,2.47
2023-05-18T08:22:25.195Z,1.65
2023-05-18T08:23:27.992Z,1.45
2023-05-18T08:24:30.618Z,1.52
2023-05-18T08:25:32.551Z,1.80
2023-05-18T08:26:36.057Z,1.50
2023-05-18T08:27:37.625Z,1.70
2023-05-18T08:28:41.086Z,2.08
2023-05-18T08:29:43.961Z,1.55
2023-05-18T08:30:46.566Z,1.67
2023-05-18T08:31:49.711Z,1.88
2023-05-18T08:32:52.410Z,1.60
2023-05-18T08:33:53.983Z,1.45
2023-05-18T08:34:56.574Z,1.90
2023-05-18T08:35:58.423Z,1.70
2023-05-18T08:37:01.535Z,1.63
2023-05-18T08:38:05.545Z,2.28
2023-05-18T08:39:09.338Z,1.83
2023-05-18T08:40:13.254Z,1.90
2023-05-18T08:41:21.020Z,1.40
2023-05-18T08:42:27.725Z,1.60
2023-05-18T08:43:42.779Z,1.65
2023-05-18T08:44:52.286Z,1.58
2023-05-18T08:46:05.012Z,1.77
2023-05-18T08:47:10.709Z,1.70
2023-05-18T08:48:16.254Z,1.40
2023-05-18T08:49:20.696Z,1.73
2023-05-18T08:50:24.569Z,1.58
2023-05-18T08:51:31.824Z,1.38
2023-05-18T08:52:36.508Z,1.60
2023-05-18T08:53:39.910Z,1.83
2023-05-18T08:54:41.784Z,1.58
2023-05-18T08:55:46.658Z,1.45
2023-05-18T08:56:49.661Z,1.23
2023-05-18T08:57:56.572Z,1.40
2023-05-18T08:58:59.081Z,1.70
2023-05-18T09:00:05.299Z,1.75
2023-05-18T09:01:07.128Z,1.67
2023-05-18T09:02:09.938Z,1.85
2023-05-18T09:03:11.630Z,2.13
2023-05-18T09:04:14.436Z,1.92
2023-05-18T09:05:16.781Z,1.65
2023-05-18T09:06:22.255Z,1.65
2023-05-18T09:07:27.502Z,1.58
2023-05-18T09:08:31.140Z,1.45
2023-05-18T09:09:34.192Z,1.30
2023-05-18T09:10:36.626Z,2.22
2023-05-18T09:11:39.658Z,1.15
2023-05-18T09:12:43.319Z,1.55
2023-05-18T09:13:46.736Z,1.90
2023-05-18T09:14:48.876Z,1.52
2023-05-18T09:15:52.673Z,1.80
2023-05-18T09:16:55.773Z,1.80
2023-05-18T09:17:57.413Z,1.70
2023-05-18T09:18:59.999Z,1.90
2023-05-18T09:20:01.683Z,1.60
2023-05-18T09:21:04.507Z,1.80
2023-05-18T09:22:07.697Z,1.70
2023-05-18T09:23:12.022Z,2.47
2023-05-18T09:24:15.336Z,1.45
2023-05-18T09:25:18.949Z,1.88
2023-05-18T09:26:22.518Z,1.92
2023-05-18T09:27:24.359Z,2.65
2023-05-18T09:28:28.867Z,2.30
2023-05-18T09:29:32.977Z,2.80
2023-05-18T09:30:40.840Z,4.22
2023-05-18T09:31:45.658Z,4.97
2023-05-18T09:32:48.666Z,3.95
2023-05-18T09:33:51.603Z,3.55
2023-05-18T09:34:55.382Z,3.15
2023-05-18T09:35:57.140Z,3.28
2023-05-18T09:36:59.826Z,3.30
2023-05-18T09:38:03.582Z,4.63
2023-05-18T09:39:09.476Z,3.00
2023-05-18T09:40:12.555Z,1.95
2023-05-18T09:41:16.430Z,2.80
2023-05-18T09:42:18.885Z,2.88
2023-05-18T09:43:20.918Z,2.40
2023-05-18T09:44:31.641Z,2.10
2023-05-18T09:45:33.239Z,2.75
2023-05-18T09:46:37.228Z,2.63
2023-05-18T09:47:41.079Z,1.80
2023-05-18T09:48:47.337Z,2.47
2023-05-18T09:49:49.002Z,1.90
2023-05-18T09:50:51.506Z,1.65
2023-05-18T09:51:53.541Z,1.52
2023-05-18T09:52:57.449Z,1.70
2023-05-18T09:54:00.208Z,2.13
2023-05-18T09:55:01.932Z,2.45
2023-05-18T09:56:06.226Z,2.40
2023-05-18T09:57:11.196Z,1.98
2023-05-18T09:58:14.364Z,2.25
2023-05-18T09:59:17.170Z,2.75
2023-05-18T10:00:20.764Z,2.53
2023-05-18T10:01:24.379Z,2.78
2023-05-18T10:02:26.972Z,2.00
2023-05-18T10:03:36.855Z,2.25
2023-05-18T10:04:40.541Z,3.13
2023-05-18T10:05:42.680Z,2.03
2023-05-18T10:06:50.304Z,1.83
2023-05-18T10:07:52.078Z,2.22
2023-05-18T10:08:57.663Z,2.50
2023-05-18T10:10:03.514Z,1.67
2023-05-18T10:11:06.684Z,2.22
2023-05-18T10:12:12.558Z,2.00
2023-05-18T10:13:19.479Z,1.70
2023-05-18T10:14:24.952Z,1.38
2023-05-18T10:15:27.486Z,1.77
2023-05-18T10:16:29.115Z,1.52
2023-05-18T10:17:34.879Z,2.95
2023-05-18T10:18:39.860Z,1.50
2023-05-18T10:19:42.397Z,1.50
2023-05-18T10:20:45.751Z,1.88
2023-05-18T10:21:50.407Z,1.50
2023-05-18T10:22:55.512Z,1.67
2023-05-18T10:23:59.885Z,1.58
2023-05-18T10:25:04.600Z,1.60
2023-05-18T10:26:09.846Z,1.73
2023-05-18T10:27:14.471Z,1.85
2023-05-18T10:28:24.350Z,1.42
2023-05-18T10:29:26.151Z,1.58
2023-05-18T10:30:29.517Z,1.50
2023-05-18T10:31:33.912Z,1.88
2023-05-18T10:32:36.582Z,1.58
2023-05-18T10:33:40.731Z,1.40
2023-05-18T10:34:43.544Z,1.50
2023-05-18T10:35:49.298Z,1.75
2023-05-18T10:36:51.795Z,1.35
2023-05-18T10:37:55.660Z,1.65
2023-05-18T10:39:00.898Z,1.45
2023-05-18T10:40:04.400Z,1.60
2023-05-18T10:41:08.619Z,2.03
2023-05-18T10:42:11.955Z,1.42
2023-05-18T10:43:18.869Z,1.35
2023-05-18T10:44:23.230Z,1.75
2023-05-18T10:45:26.455Z,1.40
2023-05-18T10:46:29.532Z,1.42
2023-05-18T10:47:32.106Z,1.60
2023-05-18T10:48:41.144Z,1.95
2023-05-18T10:49:44.778Z,1.30
2023-05-18T10:50:49.199Z,1.75
2023-05-18T10:51:53.072Z,1.30
2023-05-18T10:52:56.694Z,1.40
2023-05-18T10:54:12.769Z,1.33
2023-05-18T10:55:16.008Z,1.42
2023-05-18T10:56:18.651Z,2.95
2023-05-18T10:57:21.509Z,1.45
2023-05-18T10:58:26.700Z,1.95
2023-05-18T10:59:28.344Z,1.38
2023-05-18T11:00:32.525Z,1.50
2023-05-18T11:01:36.692Z,1.70
2023-05-18T11:02:42.398Z,1.42
2023-05-18T11:03:46.505Z,1.73
2023-05-18T11:04:49.806Z,1.63
2023-05-18T11:06:06.610Z,1.63
2023-05-18T11:07:11.490Z,1.30
2023-05-18T11:08:15.097Z,1.63
2023-05-18T11:09:24.224Z,1.50
2023-05-18T11:10:34.450Z,1.58
2023-05-18T11:11:52.810Z,1.98
2023-05-18T11:12:54.457Z,1.38
2023-05-18T11:14:01.684Z,1.70
2023-05-18T11:15:03.862Z,1.63
2023-05-18T11:16:08.389Z,1.27
2023-05-18T11:17:19.054Z,1.60
2023-05-18T11:18:21.126Z,1.63
2023-05-18T11:19:27.623Z,1.65
2023-05-18T11:20:29.729Z,1.45
2023-05-18T11:21:52.226Z,1.60
2023-05-18T11:23:03.737Z,1.48
2023-05-18T11:24:17.598Z,1.40
2023-05-18T11:25:45.683Z,1.52
2023-05-18T11:26:48.471Z,1.45
2023-05-18T11:27:51.932Z,1.65
2023-05-18T11:28:53.450Z,1.40
2023-05-18T11:30:07.776Z,1.77
2023-05-18T11:31:19.290Z,1.50
2023-05-18T11:32:29.752Z,1.17
2023-05-18T11:33:34.067Z,1.48
2023-05-18T11:34:40.854Z,1.20
2023-05-18T11:35:55.996Z,1.45
2023-05-18T11:36:58.465Z,1.17
2023-05-18T11:38:08.381Z,1.33
2023-05-18T11:39:13.523Z,1.30
2023-05-18T11:40:47.078Z,1.30
2023-05-18T11:42:00.202Z,1.23
2023-05-18T11:43:01.803Z,1.10
2023-05-18T11:44:16.005Z,1.40
2023-05-18T11:45:18.637Z,1.88
2023-05-18T11:46:21.689Z,1.23
2023-05-18T11:47:31.267Z,1.52
2023-05-18T11:48:33.384Z,1.85
2023-05-18T11:49:43.668Z,1.40
2023-05-18T11:50:46.218Z,1.20
2023-05-18T11:52:08.474Z,1.20
2023-05-18T11:53:16.759Z,1.10
2023-05-18T11:54:18.349Z,0.85
2023-05-18T11:55:21.951Z,1.20
2023-05-18T11:56:24.954Z,1.25
2023-05-18T11:57:30.745Z,1.52
2023-05-18T11:58:33.471Z,1.30
2023-05-18T11:59:39.560Z,2.03
2023-05-18T12:00:42.475Z,1.52
2023-05-18T12:01:44.267Z,1.80
2023-05-18T12:02:48.104Z,1.15
2023-05-18T12:03:50.994Z,1.50
2023-05-18T12:04:56.425Z,1.38
2023-05-18T12:06:00.251Z,1.25
2023-05-18T12:07:07.877Z,1.30
2023-05-18T12:08:10.995Z,1.40
2023-05-18T12:09:12.681Z,1.27
2023-05-18T12:10:16.139Z,1.92
2023-05-18T12:11:17.851Z,1.10
2023-05-18T12:12:20.837Z,0.90
2023-05-18T12:13:23.508Z,1.15
2023-05-18T12:14:27.569Z,1.38
2023-05-18T12:15:31.343Z,1.15
2023-05-18T12:16:33.313Z,1.48
2023-05-18T12:17:40.372Z,1.10
2023-05-18T12:18:41.929Z,2.30
2023-05-18T12:19:45.332Z,1.23
2023-05-18T12:20:50.143Z,1.50
2023-05-18T12:21:51.639Z,1.10
2023-05-18T12:22:56.287Z,1.50
2023-05-18T12:23:58.334Z,1.27
2023-05-18T12:25:00.988Z,1.10
2023-05-18T12:26:02.657Z,1.33
2023-05-18T12:27:07.950Z,1.85
2023-05-18T12:28:10.433Z,1.40
2023-05-18T12:29:14.993Z,2.67
2023-05-18T12:30:19.593Z,1.75
2023-05-18T12:31:21.493Z,1.30
2023-05-18T12:32:24.116Z,1.30
2023-05-18T12:33:25.790Z,1.40
2023-05-18T12:34:31.563Z,1.33
2023-05-18T12:35:34.381Z,1.40
2023-05-18T12:36:52.026Z,1.20
2023-05-18T12:37:55.528Z,1.60
2023-05-18T12:38:58.021Z,1.38
2023-05-18T12:40:01.228Z,1.30
2023-05-18T12:41:02.798Z,1.25
2023-05-18T12:42:13.249Z,1.40
2023-05-18T12:43:14.944Z,1.42
2023-05-18T12:44:17.510Z,1.35
2023-05-18T12:45:20.086Z,1.08
2023-05-18T12:46:24.178Z,1.40
2023-05-18T12:47:30.058Z,1.45
2023-05-18T12:48:36.538Z,1.13
2023-05-18T12:49:40.045Z,1.27
2023-05-18T12:50:47.597Z,1.52
2023-05-18T12:51:56.050Z,1.40
2023-05-18T12:52:58.699Z,1.58
2023-05-18T12:54:00.451Z,1.15
2023-05-18T12:55:03.569Z,0.98
2023-05-18T12:56:09.716Z,1.30
2023-05-18T12:57:12.395Z,1.77
2023-05-18T12:58:16.729Z,1.63
2023-05-18T12:59:20.487Z,1.45
2023-05-18T13:00:23.326Z,0.93
2023-05-18T13:01:26.466Z,1.30
2023-05-18T13:02:30.063Z,1.40
2023-05-18T13:03:34.986Z,1.50
2023-05-18T13:04:37.564Z,1.30
2023-05-18T13:05:39.360Z,1.20
2023-05-18T13:06:42.585Z,1.42
2023-05-18T13:07:46.255Z,1.00
2023-05-18T13:08:48.786Z,1.73
2023-05-18T13:09:50.497Z,1.38
2023-05-18T13:11:01.605Z,1.30
2023-05-18T13:12:14.898Z,1.23
2023-05-18T13:13:16.905Z,1.30
2023-05-18T13:14:23.337Z,1.80
2023-05-18T13:15:24.889Z,1.00
2023-05-18T13:16:29.988Z,1.20
2023-05-18T13:17:31.600Z,1.30
2023-05-18T13:18:34.396Z,1.10
2023-05-18T13:19:36.204Z,1.52
2023-05-18T13:20:41.579Z,1.50
2023-05-18T13:21:44.096Z,1.00
2023-05-18T13:22:49.759Z,1.15
2023-05-18T13:23:52.463Z,0.95
2023-05-18T13:24:53.976Z,1.30
2023-05-18T13:25:58.714Z,1.40
2023-05-18T13:27:02.349Z,1.30
2023-05-18T13:28:04.383Z,1.40
2023-05-18T13:29:08.481Z,1.20
2023-05-18T13:30:10.883Z,1.15
2023-05-18T13:31:13.443Z,1.08
2023-05-18T13:32:16.492Z,1.17
2023-05-18T13:33:19.431Z,1.30
2023-05-18T13:34:21.975Z,1.52
2023-05-18T13:35:23.688Z,1.73
2023-05-18T13:36:26.346Z,1.67
2023-05-18T13:37:28.797Z,1.30
2023-05-18T13:38:35.383Z,1.23
2023-05-18T13:39:37.880Z,1.20
2023-05-18T13:40:40.134Z,1.50
2023-05-18T13:41:42.615Z,1.77
2023-05-18T13:42:45.490Z,1.63
2023-05-18T13:43:47.969Z,1.17
2023-05-18T13:44:49.482Z,1.17
2023-05-18T13:45:51.972Z,1.17
2023-05-18T13:46:53.496Z,1.30
2023-05-18T13:47:56.888Z,1.02
2023-05-18T13:48:59.657Z,1.08
2023-05-18T13:50:01.262Z,1.27
2023-05-18T13:51:03.755Z,1.50
2023-05-18T13:52:05.547Z,1.00
2023-05-18T13:53:08.021Z,1.20
2023-05-18T13:54:10.875Z,1.02
2023-05-18T13:55:13.421Z,0.98
2023-05-18T13:56:16.262Z,1.50
2023-05-18T13:57:17.804Z,1.10
2023-05-18T13:58:20.413Z,1.55
2023-05-18T13:59:22.523Z,1.08
2023-05-18T14:00:26.214Z,1.08
2023-05-18T14:01:32.552Z,1.20
2023-05-18T14:02:35.313Z,1.75
2023-05-18T14:03:37.807Z,0.82
2023-05-18T14:04:39.479Z,1.20
2023-05-18T14:05:42.254Z,1.08
2023-05-18T14:06:44.179Z,1.08
2023-05-18T14:07:46.614Z,0.90